Time;durP1;ratioP1;P1;durP2;ratioP2;P2;SDS_P1;SDS_P2;PMS_P1;PMS_P2;Temp;Humidity;BMP_temperature;BMP_pressure;BME280_temperature;BME280_humidity;BME280_pressure;Samples;Min_cycle;Max_cycle;Signal;HPM_P1;HPM_P2
2023/01/13 00:00:15;;;;;;;0.73;0.20;;;9.40;89.20;;;;;;5048212;28;20407;-59
2023/01/13 00:02:43;;;;;;;1.15;0.60;;;9.40;89.20;;;;;;5046866;28;20091;-60
2023/01/13 00:05:10;;;;;;;1.23;0.20;;;9.40;89.20;;;;;;5051641;28;20044;-60
2023/01/13 00:07:40;;;;;;;2.70;0.45;;;9.30;89.20;;;;;;5047307;28;20045;-60
2023/01/13 00:10:09;;;;;;;1.30;0.40;;;9.40;89.10;;;;;;5044771;28;20048;-60
2023/01/13 00:12:43;;;;;;;1.80;0.60;;;9.40;89.10;;;;;;5048358;28;20056;-60
2023/01/13 00:15:18;;;;;;;1.48;0.40;;;9.40;89.00;;;;;;5046225;28;20045;-58
2023/01/13 00:17:46;;;;;;;2.38;0.50;;;9.40;88.90;;;;;;5048021;28;20045;-60
2023/01/13 00:20:14;;;;;;;3.38;0.60;;;9.40;89.00;;;;;;5044833;28;20045;-60
2023/01/13 00:22:41;;;;;;;1.30;0.30;;;9.40;88.90;;;;;;5047293;28;20053;-59
2023/01/13 00:25:09;;;;;;;1.73;0.43;;;9.40;89.00;;;;;;5045983;28;20130;-59
2023/01/13 00:27:36;;;;;;;0.90;0.20;;;9.40;88.90;;;;;;5043900;28;20160;-60
2023/01/13 00:30:04;;;;;;;1.92;0.50;;;9.40;88.90;;;;;;5057333;28;20056;-60
2023/01/13 00:32:32;;;;;;;2.28;0.30;;;9.40;88.90;;;;;;5058669;28;20045;-59
2023/01/13 00:34:59;;;;;;;3.33;0.50;;;9.40;88.80;;;;;;5049345;28;20053;-61
2023/01/13 00:37:26;;;;;;;1.05;0.30;;;9.40;88.80;;;;;;5049383;28;20511;-60
2023/01/13 00:39:53;;;;;;;1.55;0.43;;;9.40;88.80;;;;;;5047217;28;20040;-58
2023/01/13 00:45:06;;;;;;;3.00;0.40;;;9.40;88.80;;;;;;5044279;28;20057;-60
2023/01/13 00:47:34;;;;;;;2.45;0.55;;;9.40;88.70;;;;;;5049277;28;20484;-59
2023/01/13 00:50:01;;;;;;;0.40;0.30;;;9.40;88.70;;;;;;5038682;28;20488;-59
2023/01/13 00:52:29;;;;;;;1.48;0.30;;;9.40;88.60;;;;;;5039710;28;20049;-58
2023/01/13 00:54:55;;;;;;;0.45;0.20;;;9.40;88.60;;;;;;5034014;28;20037;-60
2023/01/13 00:57:24;;;;;;;1.42;0.43;;;9.40;88.70;;;;;;5040585;28;20053;-59
2023/01/13 00:59:50;;;;;;;1.60;0.50;;;9.40;88.70;;;;;;5037639;28;20530;-60
2023/01/13 01:02:17;;;;;;;1.10;0.45;;;9.50;88.60;;;;;;5040427;28;20049;-60
2023/01/13 01:04:46;;;;;;;1.98;0.47;;;9.50;88.60;;;;;;5040143;28;20092;-60
2023/01/13 01:07:13;;;;;;;1.00;0.30;;;9.50;88.40;;;;;;5037200;28;20056;-61
2023/01/13 01:09:40;;;;;;;1.60;0.35;;;9.50;88.50;;;;;;5039447;28;20059;-60
2023/01/13 01:12:07;;;;;;;0.60;0.30;;;9.50;88.40;;;;;;5038906;28;20045;-60
2023/01/13 01:14:34;;;;;;;1.15;0.40;;;9.50;88.50;;;;;;5039424;28;20049;-59
2023/01/13 01:17:01;;;;;;;1.90;0.50;;;9.50;88.50;;;;;;5038342;28;20057;-63
2023/01/13 01:19:28;;;;;;;1.13;0.20;;;9.50;88.50;;;;;;5034183;28;20052;-62
2023/01/13 01:21:56;;;;;;;1.25;0.20;;;9.50;88.50;;;;;;5051485;28;20042;-63
2023/01/13 01:24:23;;;;;;;2.78;0.40;;;9.50;88.50;;;;;;5042358;28;20056;-62
2023/01/13 01:26:50;;;;;;;0.70;0.30;;;9.50;88.50;;;;;;5036938;28;20045;-62
2023/01/13 01:29:16;;;;;;;1.13;0.40;;;9.50;88.40;;;;;;5037428;28;20045;-62
2023/01/13 01:31:44;;;;;;;0.32;0.20;;;9.50;88.50;;;;;;5033175;28;20056;-64
2023/01/13 01:34:11;;;;;;;2.83;0.43;;;9.50;88.40;;;;;;5040416;28;20049;-62
2023/01/13 01:36:39;;;;;;;1.92;0.40;;;9.50;88.30;;;;;;5039645;28;20480;-62
2023/01/13 01:39:10;;;;;;;0.88;0.40;;;9.60;88.20;;;;;;5048752;28;20396;-63
2023/01/13 01:41:37;;;;;;;1.00;0.28;;;9.60;88.20;;;;;;5051119;28;20045;-62
2023/01/13 01:44:07;;;;;;;2.70;0.40;;;9.60;88.20;;;;;;5048166;28;20071;-62
2023/01/13 01:46:36;;;;;;;1.45;0.45;;;9.60;88.20;;;;;;5050800;28;20053;-58
2023/01/13 01:49:10;;;;;;;1.17;0.45;;;9.60;88.10;;;;;;5052600;28;20087;-58
2023/01/13 01:51:41;;;;;;;1.23;0.30;;;9.60;88.10;;;;;;5046713;28;20049;-58
2023/01/13 01:54:13;;;;;;;2.10;0.30;;;9.60;88.10;;;;;;5052175;28;20480;-60
2023/01/13 01:56:43;;;;;;;0.73;0.32;;;9.60;88.00;;;;;;5046091;28;20053;-62
2023/01/13 01:59:10;;;;;;;2.33;0.30;;;9.60;88.00;;;;;;5052076;28;20049;-62
2023/01/13 02:01:38;;;;;;;0.73;0.20;;;9.60;88.00;;;;;;5051824;28;20048;-64
2023/01/13 02:04:10;;;;;;;1.50;0.40;;;9.60;87.90;;;;;;5049121;28;20048;-61
2023/01/13 02:06:39;;;;;;;1.45;0.43;;;9.60;87.90;;;;;;5043917;28;20064;-61
2023/01/13 02:09:07;;;;;;;2.25;0.70;;;9.60;87.90;;;;;;5051960;28;20144;-60
2023/01/13 02:14:17;;;;;;;2.53;0.63;;;9.70;87.90;;;;;;5004250;28;20077;-62
2023/01/13 02:16:52;;;;;;;1.98;0.70;;;9.60;87.90;;;;;;5040765;28;20080;-67
2023/01/13 02:19:51;;;;;;;2.42;0.60;;;9.60;87.90;;;;;;5038857;28;20060;-68
2023/01/13 02:22:46;;;;;;;2.92;0.52;;;9.60;87.90;;;;;;5038207;28;20788;-60
2023/01/13 02:25:54;;;;;;;2.15;0.45;;;9.60;88.10;;;;;;5058728;28;20127;-65
2023/01/13 02:31:40;;;;;;;1.23;0.30;;;9.60;88.40;;;;;;5049071;28;20089;-60
2023/01/13 02:31:41;;;;;;;0.70;0.30;;;9.60;88.50;;;;;;5049517;28;20151;-61
2023/01/13 02:34:14;;;;;;;2.80;0.40;;;9.60;88.60;;;;;;5049861;28;20084;-59
2023/01/13 02:36:49;;;;;;;1.63;0.22;;;9.60;88.90;;;;;;5047603;28;20064;-60
2023/01/13 02:39:23;;;;;;;1.38;0.40;;;9.60;89.00;;;;;;5045224;28;20914;-60
2023/01/13 02:44:42;;;;;;;;;;;9.60;89.10;;;;;;5042723;28;20538;-62
2023/01/13 02:47:17;;;;;;;1.70;0.30;;;9.60;89.10;;;;;;5034330;28;19921;-62
2023/01/13 02:49:48;;;;;;;1.38;0.40;;;9.60;89.10;;;;;;5035244;28;20049;-61
2023/01/13 02:52:21;;;;;;;1.02;0.20;;;9.50;89.10;;;;;;5038188;28;20128;-61
2023/01/13 02:54:54;;;;;;;3.47;0.30;;;9.60;89.00;;;;;;5030627;28;20052;-63
2023/01/13 02:57:22;;;;;;;0.15;0.15;;;9.60;88.80;;;;;;5039567;28;20049;-61
2023/01/13 02:59:50;;;;;;;1.00;0.30;;;9.50;88.60;;;;;;5032860;28;20048;-61
2023/01/13 03:02:21;;;;;;;1.48;0.28;;;9.60;88.50;;;;;;5033981;28;20108;-63
2023/01/13 03:04:54;;;;;;;1.80;0.38;;;9.60;88.40;;;;;;5037861;28;20090;-62
2023/01/13 03:07:38;;;;;;;0.40;0.20;;;9.60;88.40;;;;;;5055511;28;20049;-58
2023/01/13 03:10:10;;;;;;;1.38;0.38;;;9.60;88.20;;;;;;5051190;28;20128;-58
2023/01/13 03:12:50;;;;;;;1.50;0.30;;;9.60;88.00;;;;;;5051386;28;20052;-57
2023/01/13 03:15:29;;;;;;;1.23;0.30;;;9.60;88.00;;;;;;5057391;28;20510;-58
2023/01/13 03:18:08;;;;;;;0.75;0.22;;;9.70;87.90;;;;;;5041319;28;20044;-57
2023/01/13 03:20:42;;;;;;;0.68;0.20;;;9.60;87.80;;;;;;5038262;28;20400;-58
2023/01/13 03:23:19;;;;;;;0.52;0.17;;;9.70;87.70;;;;;;5041502;28;20053;-58
2023/01/13 03:25:53;;;;;;;1.15;0.63;;;9.70;87.70;;;;;;5038295;28;20057;-57
2023/01/13 03:28:26;;;;;;;1.15;0.22;;;9.70;87.60;;;;;;5039595;28;20052;-58
2023/01/13 03:30:59;;;;;;;0.50;0.22;;;9.70;87.60;;;;;;5036512;28;20049;-60
2023/01/13 03:33:34;;;;;;;0.80;0.30;;;9.70;87.50;;;;;;5038888;28;20041;-61
2023/01/13 03:36:04;;;;;;;0.55;0.20;;;9.70;87.50;;;;;;5040476;28;20052;-60
2023/01/13 03:38:33;;;;;;;1.25;0.35;;;9.70;87.50;;;;;;5031378;28;20049;-60
2023/01/13 03:41:05;;;;;;;1.73;0.65;;;9.70;87.40;;;;;;5038260;28;20500;-59
2023/01/13 03:46:27;;;;;;;1.92;0.60;;;9.70;87.50;;;;;;5036819;28;20136;-60
2023/01/13 03:48:59;;;;;;;2.05;0.30;;;9.70;87.50;;;;;;5037377;28;20041;-60
2023/01/13 03:51:30;;;;;;;1.67;0.50;;;9.70;87.50;;;;;;5033670;28;20041;-60
2023/01/13 03:54:00;;;;;;;2.20;0.38;;;9.70;87.60;;;;;;5038927;28;20693;-60
2023/01/13 03:56:33;;;;;;;0.63;0.32;;;9.70;87.70;;;;;;5040147;28;20071;-60
2023/01/13 03:59:03;;;;;;;0.77;0.20;;;9.70;87.80;;;;;;5029999;28;20044;-60
2023/01/13 04:01:36;;;;;;;1.98;0.30;;;9.70;87.80;;;;;;5032066;28;20072;-60
2023/01/13 04:04:07;;;;;;;1.02;0.30;;;9.70;87.80;;;;;;5036723;28;20495;-59
2023/01/13 04:06:41;;;;;;;0.47;0.20;;;9.70;87.70;;;;;;5034817;28;20400;-60
2023/01/13 04:09:15;;;;;;;0.90;0.20;;;9.70;87.60;;;;;;5035069;28;20049;-60
2023/01/13 04:11:46;;;;;;;1.27;0.20;;;9.70;87.60;;;;;;5039432;28;20057;-59
2023/01/13 04:14:15;;;;;;;1.80;0.20;;;9.70;87.70;;;;;;5035018;28;20064;-59
2023/01/13 04:16:42;;;;;;;0.75;0.30;;;9.70;87.70;;;;;;5038230;28;20062;-60
2023/01/13 04:19:11;;;;;;;0.73;0.30;;;9.70;87.60;;;;;;5047656;28;20052;-61
2023/01/13 04:21:38;;;;;;;0.47;0.10;;;9.70;87.60;;;;;;5044009;28;20057;-62
2023/01/13 04:24:05;;;;;;;1.42;0.20;;;9.70;87.60;;;;;;5037005;28;20077;-62
2023/01/13 04:26:32;;;;;;;0.95;0.20;;;9.70;87.60;;;;;;5038750;28;20049;-61
2023/01/13 04:28:59;;;;;;;0.73;0.20;;;9.70;87.60;;;;;;5033474;28;20412;-63
2023/01/13 04:31:26;;;;;;;1.80;0.30;;;9.70;87.60;;;;;;5036465;28;20060;-61
2023/01/13 04:33:53;;;;;;;0.73;0.20;;;9.70;87.50;;;;;;5039256;28;20056;-62
2023/01/13 04:36:23;;;;;;;0.35;0.10;;;9.70;87.40;;;;;;5047244;28;20490;-61
2023/01/13 04:38:50;;;;;;;0.50;0.22;;;9.80;87.40;;;;;;5044023;28;20049;-62
2023/01/13 04:41:17;;;;;;;0.98;0.20;;;9.80;87.30;;;;;;5042260;28;20049;-62
2023/01/13 04:43:44;;;;;;;1.10;0.30;;;9.70;87.30;;;;;;5038635;28;20057;-60
2023/01/13 04:46:11;;;;;;;1.67;0.20;;;9.80;87.20;;;;;;5040809;28;20057;-59
2023/01/13 04:48:38;;;;;;;2.17;0.30;;;9.80;87.30;;;;;;5042185;28;20049;-61
2023/01/13 04:51:05;;;;;;;0.65;0.30;;;9.80;87.30;;;;;;5038757;28;20052;-68
2023/01/13 04:53:33;;;;;;;0.65;0.20;;;9.80;87.30;;;;;;5041796;28;20044;-68
2023/01/13 04:56:00;;;;;;;1.10;0.30;;;9.80;87.20;;;;;;5041356;28;20048;-58
2023/01/13 04:58:28;;;;;;;0.47;0.20;;;9.80;87.30;;;;;;5038503;28;20045;-57
2023/01/13 05:00:55;;;;;;;0.40;0.25;;;9.80;87.20;;;;;;5042388;28;20652;-58
2023/01/13 05:03:23;;;;;;;0.73;0.25;;;9.80;87.20;;;;;;5042683;28;20042;-58
2023/01/13 05:05:51;;;;;;;0.80;0.30;;;9.80;87.20;;;;;;5043076;28;20412;-58
2023/01/13 05:08:18;;;;;;;1.02;0.20;;;9.80;87.10;;;;;;5040710;28;20494;-58
2023/01/13 05:10:46;;;;;;;0.57;0.10;;;9.80;87.10;;;;;;5036627;28;20458;-57
2023/01/13 05:18:45;;;;;;;0.60;0.38;;;9.80;87.00;;;;;;5039748;28;20045;-62
2023/01/13 05:25:20;;;;;;;0.25;0.10;;;9.80;87.00;;;;;;5041448;28;20045;-68
2023/01/13 05:26:44;;;;;;;0.40;0.17;;;9.90;87.00;;;;;;5008696;28;20073;-67
2023/01/13 05:29:11;;;;;;;0.38;0.10;;;9.90;86.90;;;;;;5050587;28;20048;-70
2023/01/13 05:31:37;;;;;;;0.70;0.20;;;9.90;86.90;;;;;;5051276;28;20064;-60
2023/01/13 05:34:04;;;;;;;1.33;0.28;;;9.90;87.00;;;;;;5056055;28;20090;-61
2023/01/13 05:36:31;;;;;;;1.33;0.20;;;9.90;87.10;;;;;;5047883;28;20056;-67
2023/01/13 05:38:58;;;;;;;0.85;0.20;;;9.90;87.10;;;;;;5048677;28;20049;-66
2023/01/13 05:44:11;;;;;;;1.55;0.40;;;9.90;87.00;;;;;;5060956;28;20053;-69
2023/01/13 05:46:39;;;;;;;0.40;0.20;;;9.90;87.10;;;;;;5050655;28;20045;-61
2023/01/13 05:49:06;;;;;;;0.90;0.10;;;9.90;87.20;;;;;;5048167;28;20049;-61
2023/01/13 05:51:32;;;;;;;0.75;0.20;;;9.90;87.40;;;;;;5046301;28;21113;-61
2023/01/13 05:53:59;;;;;;;0.52;0.10;;;9.90;87.50;;;;;;5058477;28;20059;-61
2023/01/13 05:56:26;;;;;;;0.20;0.20;;;9.90;87.90;;;;;;5050364;28;20057;-60
2023/01/13 05:58:53;;;;;;;1.10;0.20;;;9.80;88.20;;;;;;5051939;28;20128;-61
2023/01/13 06:01:22;;;;;;;2.30;0.32;;;9.80;88.60;;;;;;5053426;28;20281;-61
2023/01/13 06:03:49;;;;;;;1.00;0.30;;;9.80;88.80;;;;;;5050953;28;20397;-61
2023/01/13 06:06:16;;;;;;;1.70;0.30;;;9.80;89.10;;;;;;5048302;28;20075;-62
2023/01/13 06:08:43;;;;;;;0.82;0.10;;;9.70;88.60;;;;;;5048459;28;20051;-62
2023/01/13 06:11:10;;;;;;;1.40;0.10;;;9.60;87.90;;;;;;5047316;28;20041;-68
2023/01/13 06:13:36;;;;;;;1.38;0.22;;;9.40;87.80;;;;;;5038616;28;20049;-67
2023/01/13 06:16:04;;;;;;;0.50;0.20;;;9.50;87.90;;;;;;5040792;28;20048;-66
2023/01/13 06:18:32;;;;;;;1.00;0.25;;;9.50;87.80;;;;;;5039889;28;20053;-66
2023/01/13 06:21:01;;;;;;;0.65;0.10;;;9.50;87.80;;;;;;5039968;28;20060;-61
2023/01/13 06:23:30;;;;;;;0.93;0.20;;;9.40;87.60;;;;;;5042272;28;20041;-64
2023/01/13 06:26:02;;;;;;;0.52;0.20;;;9.40;87.70;;;;;;5039259;28;20162;-66
2023/01/13 06:28:29;;;;;;;0.90;0.22;;;9.40;87.80;;;;;;5040825;28;20049;-62
2023/01/13 06:30:59;;;;;;;1.23;0.20;;;9.40;87.70;;;;;;5040445;28;20041;-62
2023/01/13 06:33:30;;;;;;;0.68;0.30;;;9.30;87.80;;;;;;5042017;28;20583;-62
2023/01/13 06:36:01;;;;;;;0.25;0.10;;;9.20;87.90;;;;;;5037039;28;20045;-63
2023/01/13 06:38:31;;;;;;;2.05;0.20;;;9.30;87.50;;;;;;5038355;28;20137;-62
2023/01/13 06:40:58;;;;;;;0.52;0.28;;;9.20;87.00;;;;;;5040443;28;20053;-62
2023/01/13 06:43:24;;;;;;;1.40;0.20;;;9.20;86.80;;;;;;5035105;28;20424;-62
2023/01/13 06:45:53;;;;;;;1.92;0.20;;;9.20;86.40;;;;;;5039226;28;20102;-62
2023/01/13 06:48:23;;;;;;;1.08;0.30;;;9.20;86.80;;;;;;5039157;28;20134;-62
2023/01/13 06:50:50;;;;;;;1.08;0.20;;;9.20;86.50;;;;;;5039659;28;20060;-63
2023/01/13 06:53:19;;;;;;;1.35;0.28;;;9.20;86.60;;;;;;5039290;28;20411;-62
2023/01/13 06:55:46;;;;;;;0.40;0.20;;;9.10;86.40;;;;;;5039166;28;20093;-62
2023/01/13 06:58:13;;;;;;;3.17;0.30;;;9.00;87.20;;;;;;5036276;28;20065;-63
2023/01/13 07:00:40;;;;;;;1.40;0.30;;;9.00;87.30;;;;;;5042172;28;20041;-62
2023/01/13 07:03:10;;;;;;;0.57;0.30;;;9.00;87.40;;;;;;5045551;28;20042;-62
2023/01/13 07:05:37;;;;;;;1.15;0.25;;;9.00;87.50;;;;;;5037177;28;20385;-61
2023/01/13 07:08:05;;;;;;;0.80;0.20;;;9.00;87.50;;;;;;5039575;28;20064;-61
2023/01/13 07:10:34;;;;;;;1.10;0.40;;;9.00;87.30;;;;;;5040062;28;20064;-63
2023/01/13 07:15:56;;;;;;;1.20;0.30;;;8.90;87.20;;;;;;5038733;28;20056;-60
2023/01/13 07:18:23;;;;;;;1.27;0.40;;;8.90;87.70;;;;;;5036548;28;20128;-60
2023/01/13 07:20:54;;;;;;;1.08;0.35;;;8.90;87.60;;;;;;5036040;28;20454;-60
2023/01/13 07:23:21;;;;;;;1.98;0.30;;;8.90;87.70;;;;;;5040008;28;20049;-62
2023/01/13 07:25:50;;;;;;;1.38;0.30;;;8.90;87.50;;;;;;5038962;28;20515;-60
2023/01/13 07:28:17;;;;;;;2.53;0.50;;;8.80;87.60;;;;;;5037510;28;20053;-60
2023/01/13 07:30:44;;;;;;;0.65;0.20;;;8.80;87.90;;;;;;5040175;28;20411;-61
2023/01/13 07:33:11;;;;;;;1.45;0.20;;;8.80;87.90;;;;;;5038939;28;20136;-60
2023/01/13 07:35:38;;;;;;;2.47;0.45;;;8.80;87.80;;;;;;5037904;28;20057;-60
2023/01/13 07:38:04;;;;;;;3.00;0.50;;;8.80;87.50;;;;;;5038891;28;20053;-60
2023/01/13 07:40:31;;;;;;;2.17;0.52;;;8.80;87.50;;;;;;5033439;28;20053;-63
2023/01/13 07:45:44;;;;;;;1.73;0.40;;;8.80;87.20;;;;;;5036895;28;20065;-60
2023/01/13 07:48:13;;;;;;;0.85;0.38;;;8.70;87.20;;;;;;5040551;28;20083;-61
2023/01/13 07:50:39;;;;;;;1.30;0.47;;;8.80;87.10;;;;;;5039088;28;20064;-61
2023/01/13 07:53:07;;;;;;;1.48;0.50;;;8.80;87.10;;;;;;5036824;28;20044;-59
2023/01/13 07:55:34;;;;;;;1.83;0.60;;;8.70;87.10;;;;;;5038402;28;20064;-61
2023/01/13 07:58:02;;;;;;;2.20;0.80;;;8.70;87.30;;;;;;5039045;28;20048;-60
2023/01/13 08:00:29;;;;;;;1.70;0.50;;;8.70;87.30;;;;;;5038895;28;20049;-60
2023/01/13 08:02:56;;;;;;;3.67;0.70;;;8.70;87.30;;;;;;5039046;28;20063;-61
2023/01/13 08:05:23;;;;;;;3.33;0.60;;;8.80;87.20;;;;;;5035288;28;20054;-63
2023/01/13 08:07:50;;;;;;;0.73;0.40;;;8.80;87.10;;;;;;5038101;28;20056;-62
2023/01/13 08:10:17;;;;;;;2.40;0.70;;;8.70;87.40;;;;;;5039912;28;20053;-62
2023/01/13 08:15:45;;;;;;;2.67;0.60;;;8.60;87.80;;;;;;4976453;28;20081;-64
2023/01/13 08:18:12;;;;;;;1.67;0.68;;;8.60;87.90;;;;;;4987137;28;20504;-62
2023/01/13 08:20:39;;;;;;;1.73;0.50;;;8.60;88.00;;;;;;5013758;28;20045;-59
2023/01/13 08:23:06;;;;;;;2.20;0.40;;;8.60;88.10;;;;;;5048361;28;20040;-59
2023/01/13 08:25:33;;;;;;;2.25;0.60;;;8.60;88.20;;;;;;5055686;28;20424;-60
2023/01/13 08:28:00;;;;;;;1.10;0.40;;;8.70;88.10;;;;;;5047885;28;20049;-60
2023/01/13 08:30:28;;;;;;;1.45;0.35;;;8.70;88.10;;;;;;5048030;28;20049;-61
2023/01/13 08:32:56;;;;;;;2.70;0.52;;;8.70;88.10;;;;;;5044822;28;20053;-60
2023/01/13 08:35:24;;;;;;;3.85;0.50;;;8.70;88.10;;;;;;5046243;28;20060;-68
2023/01/13 08:37:51;;;;;;;1.30;0.40;;;8.70;88.00;;;;;;5043902;28;20049;-68
2023/01/13 08:40:19;;;;;;;1.50;0.40;;;8.80;88.00;;;;;;5046576;28;20041;-67
2023/01/13 08:42:47;;;;;;;0.95;0.38;;;8.70;88.20;;;;;;5045998;28;20075;-68
2023/01/13 08:45:14;;;;;;;1.42;0.50;;;8.80;88.00;;;;;;5045752;28;20098;-67
2023/01/13 08:47:41;;;;;;;3.03;0.70;;;8.80;88.20;;;;;;5047457;28;20492;-68
2023/01/13 08:50:11;;;;;;;1.83;0.40;;;8.70;88.40;;;;;;5045484;28;20093;-66
2023/01/13 08:52:37;;;;;;;1.67;0.43;;;8.80;88.30;;;;;;5048408;28;20052;-68
2023/01/13 08:55:05;;;;;;;2.42;0.47;;;8.80;88.20;;;;;;5044293;28;20500;-67
2023/01/13 08:57:32;;;;;;;2.15;0.55;;;8.80;87.90;;;;;;5043300;28;20411;-67
2023/01/13 08:59:59;;;;;;;1.95;0.40;;;8.80;87.90;;;;;;5029898;28;20044;-67
2023/01/13 09:02:26;;;;;;;2.05;0.70;;;8.80;88.00;;;;;;5043226;28;20061;-67
2023/01/13 09:04:54;;;;;;;0.95;0.30;;;8.80;87.90;;;;;;5044564;28;20652;-69
2023/01/13 09:07:22;;;;;;;0.80;0.45;;;8.90;87.90;;;;;;5047950;28;20040;-59
2023/01/13 09:09:50;;;;;;;1.35;0.40;;;8.90;87.70;;;;;;5047523;28;20045;-61
2023/01/13 09:15:05;;;;;;;2.35;0.50;;;8.90;87.50;;;;;;5035509;28;20057;-63
2023/01/13 09:17:32;;;;;;;2.88;0.50;;;8.90;87.40;;;;;;5046232;28;20045;-63
2023/01/13 09:19:59;;;;;;;1.33;0.25;;;8.90;87.20;;;;;;5044982;28;20052;-63
2023/01/13 09:22:27;;;;;;;1.13;0.38;;;8.90;87.20;;;;;;5061765;28;20044;-62
2023/01/13 09:24:55;;;;;;;1.58;0.40;;;9.00;87.30;;;;;;5050200;28;20135;-61
2023/01/13 09:27:22;;;;;;;0.98;0.30;;;9.00;87.30;;;;;;5049515;28;20053;-63
2023/01/13 09:29:49;;;;;;;2.45;0.50;;;9.00;87.30;;;;;;5047322;28;20064;-61
2023/01/13 09:32:17;;;;;;;1.05;0.40;;;9.00;87.20;;;;;;5054264;28;20076;-62
2023/01/13 09:34:58;;;;;;;1.23;0.20;;;9.00;87.30;;;;;;5054734;28;20045;-64
2023/01/13 09:37:27;;;;;;;1.60;0.40;;;8.90;87.30;;;;;;5048095;28;20045;-63
2023/01/13 09:39:54;;;;;;;0.73;0.20;;;8.90;87.40;;;;;;5048524;28;20052;-62
2023/01/13 09:45:16;;;;;;;0.68;0.30;;;8.90;87.40;;;;;;5043785;28;20061;-67
2023/01/13 09:47:50;;;;;;;1.00;0.30;;;8.90;87.10;;;;;;5041385;28;20059;-68
2023/01/13 09:50:25;;;;;;;1.20;0.40;;;8.90;87.10;;;;;;5039730;28;20044;-68
2023/01/13 09:52:54;;;;;;;2.13;0.38;;;8.90;87.00;;;;;;5038229;28;20048;-70
2023/01/13 09:55:27;;;;;;;2.72;0.30;;;8.90;87.00;;;;;;5045367;28;20048;-67
2023/01/13 09:57:55;;;;;;;1.23;0.30;;;8.90;86.80;;;;;;5041046;28;20072;-66
2023/01/13 10:00:24;;;;;;;2.65;0.68;;;8.90;86.80;;;;;;5033307;28;20041;-67
2023/01/13 10:03:18;;;;;;;3.70;0.47;;;9.00;86.60;;;;;;5036578;28;20045;-68
2023/01/13 10:05:50;;;;;;;2.03;0.50;;;9.10;86.60;;;;;;5035376;28;20045;-62
2023/01/13 10:08:23;;;;;;;2.15;0.57;;;9.10;86.50;;;;;;5037376;28;20049;-62
2023/01/13 10:10:54;;;;;;;2.60;0.75;;;9.10;86.40;;;;;;5039553;28;20056;-67
2023/01/13 10:13:22;;;;;;;4.22;1.00;;;9.20;86.50;;;;;;5039152;28;20048;-70
2023/01/13 10:16:03;;;;;;;7.65;1.65;;;9.20;86.40;;;;;;5033301;28;20051;-67
2023/01/13 10:18:40;;;;;;;7.10;1.55;;;9.20;86.20;;;;;;5041125;28;20085;-70
2023/01/13 10:21:22;;;;;;;4.15;1.20;;;9.30;86.20;;;;;;5040700;28;20057;-66
2023/01/13 10:23:58;;;;;;;3.53;1.10;;;9.30;86.10;;;;;;5035799;28;20168;-67
2023/01/13 10:26:39;;;;;;;3.45;0.60;;;9.30;86.00;;;;;;5035756;28;20064;-63
2023/01/13 10:29:19;;;;;;;1.23;0.38;;;9.40;85.90;;;;;;5039149;28;20041;-63
2023/01/13 10:31:46;;;;;;;1.30;0.30;;;9.40;85.70;;;;;;5035625;28;20060;-60
2023/01/13 10:34:15;;;;;;;3.35;0.57;;;9.40;85.60;;;;;;5045451;28;20463;-61
2023/01/13 10:36:54;;;;;;;2.33;0.45;;;9.50;85.60;;;;;;5045266;28;20107;-58
2023/01/13 10:39:22;;;;;;;1.08;0.30;;;9.50;85.40;;;;;;5043154;28;20045;-58
2023/01/13 10:41:49;;;;;;;2.28;0.47;;;9.40;85.30;;;;;;5037215;28;20051;-60
2023/01/13 10:44:18;;;;;;;2.35;0.30;;;9.40;85.00;;;;;;5037830;28;20050;-60
2023/01/13 10:46:53;;;;;;;1.13;0.40;;;9.40;85.00;;;;;;5035840;28;20057;-63
2023/01/13 10:49:29;;;;;;;1.60;0.35;;;9.40;85.00;;;;;;5039715;28;20055;-64
2023/01/13 10:51:56;;;;;;;3.92;0.40;;;9.40;84.80;;;;;;5037768;28;20140;-62
2023/01/13 10:54:26;;;;;;;3.13;0.30;;;9.50;84.70;;;;;;5039010;28;20079;-61
2023/01/13 10:57:15;;;;;;;1.80;0.50;;;9.50;84.30;;;;;;5041001;28;20060;-61
2023/01/13 10:59:42;;;;;;;1.33;0.30;;;9.50;84.40;;;;;;5041032;28;20137;-61
2023/01/13 11:02:28;;;;;;;2.03;0.50;;;9.50;84.30;;;;;;5050716;28;20046;-62
2023/01/13 11:05:02;;;;;;;1.95;0.47;;;9.50;84.30;;;;;;5042460;28;20131;-61
2023/01/13 11:07:33;;;;;;;1.88;0.47;;;9.50;84.10;;;;;;5049048;28;20684;-61
2023/01/13 11:10:16;;;;;;;3.55;0.50;;;9.50;84.10;;;;;;5052371;28;20044;-62
2023/01/13 11:12:51;;;;;;;2.00;0.50;;;9.40;83.90;;;;;;5052819;28;20499;-61
2023/01/13 11:15:22;;;;;;;2.42;0.50;;;9.50;83.90;;;;;;5048193;28;20049;-61
2023/01/13 11:17:59;;;;;;;1.15;0.40;;;9.50;84.00;;;;;;5030802;28;20103;-61
2023/01/13 11:20:32;;;;;;;3.15;0.60;;;9.50;83.90;;;;;;5040563;28;20049;-60
2023/01/13 11:23:04;;;;;;;2.53;0.52;;;9.50;83.70;;;;;;5039901;28;20057;-60
2023/01/13 11:25:41;;;;;;;3.35;0.47;;;9.60;83.70;;;;;;5046135;28;20060;-61
2023/01/13 11:28:33;;;;;;;2.30;0.50;;;9.60;83.90;;;;;;5041745;28;20042;-61
2023/01/13 11:31:08;;;;;;;1.90;0.43;;;9.50;83.50;;;;;;5039307;28;20057;-61
2023/01/13 11:33:41;;;;;;;4.57;0.88;;;9.50;83.30;;;;;;5039704;28;20050;-61
2023/01/13 11:36:13;;;;;;;3.95;1.20;;;9.50;83.60;;;;;;5041228;28;20048;-58
2023/01/13 11:38:46;;;;;;;2.75;0.52;;;9.50;83.10;;;;;;5040580;28;20063;-58
2023/01/13 11:41:24;;;;;;;6.18;0.80;;;9.40;83.40;;;;;;5049760;28;20407;-62
2023/01/13 11:43:55;;;;;;;1.80;0.65;;;9.40;83.30;;;;;;5049425;28;20098;-63
2023/01/13 11:46:25;;;;;;;3.50;0.70;;;9.40;83.20;;;;;;5048248;28;20055;-63
2023/01/13 11:48:55;;;;;;;;;;;9.40;83.20;;;;;;5046329;28;20084;-63
2023/01/13 11:51:32;;;;;;;4.47;0.70;;;9.40;82.60;;;;;;5039933;28;19959;-60
2023/01/13 11:54:18;;;;;;;4.45;0.60;;;9.30;82.80;;;;;;5039409;28;20515;-59
2023/01/13 11:57:14;;;;;;;5.55;1.17;;;9.30;82.50;;;;;;5036453;28;20143;-61
2023/01/13 11:59:54;;;;;;;3.50;1.17;;;9.20;82.60;;;;;;5040495;28;20480;-60
2023/01/13 12:02:37;;;;;;;3.45;0.80;;;9.20;83.10;;;;;;5047450;28;20047;-60
2023/01/13 12:05:14;;;;;;;4.50;0.70;;;9.20;82.80;;;;;;5050586;28;20060;-60
2023/01/13 12:07:51;;;;;;;1.10;0.40;;;9.10;82.90;;;;;;5055585;28;20070;-61
2023/01/13 12:10:41;;;;;;;2.35;0.68;;;9.10;83.00;;;;;;5051659;28;20049;-61
2023/01/13 12:13:21;;;;;;;3.97;0.60;;;9.00;83.10;;;;;;5051228;28;20044;-61
2023/01/13 12:16:20;;;;;;;1.83;0.57;;;8.80;83.50;;;;;;5041504;28;20467;-69
2023/01/13 12:19:13;;;;;;;2.63;0.35;;;8.70;83.60;;;;;;5044214;28;20054;-68
2023/01/13 12:21:54;;;;;;;2.60;0.40;;;8.80;83.90;;;;;;5053924;28;20040;-63
2023/01/13 12:24:25;;;;;;;;;;;8.80;83.60;;;;;;5039752;28;20068;-66
2023/01/13 12:26:57;;;;;;;2.15;0.55;;;8.70;83.80;;;;;;5038458;28;19931;-69
2023/01/13 12:29:30;;;;;;;2.83;0.50;;;8.80;84.40;;;;;;5038770;28;20053;-71
2023/01/13 12:32:00;;;;;;;1.02;0.40;;;8.80;84.30;;;;;;5038169;28;20040;-68
2023/01/13 12:34:41;;;;;;;2.83;0.63;;;8.80;84.50;;;;;;5039298;28;20056;-68
2023/01/13 12:37:13;;;;;;;;;;;8.90;84.30;;;;;;5036317;28;20368;-65
2023/01/13 12:39:52;;;;;;;3.92;0.82;;;8.80;84.30;;;;;;5036495;28;19925;-64
2023/01/13 12:45:33;;;;;;;1.83;0.50;;;8.90;84.50;;;;;;5046437;28;20053;-69
2023/01/13 12:48:00;;;;;;;6.72;0.82;;;8.90;84.60;;;;;;5043080;28;20629;-68
2023/01/13 12:50:40;;;;;;;3.33;0.82;;;8.90;84.70;;;;;;5047167;28;20045;-61
2023/01/13 12:53:40;;;;;;;3.08;0.60;;;8.90;84.60;;;;;;5048452;28;20044;-60
2023/01/13 12:56:25;;;;;;;3.75;1.38;;;8.90;84.70;;;;;;4969792;28;20167;-59
2023/01/13 12:58:51;;;;;;;4.38;0.88;;;8.90;84.80;;;;;;4981219;28;20046;-61
2023/01/13 13:01:35;;;;;;;7.10;1.13;;;9.00;84.90;;;;;;5027690;28;20041;-60
2023/01/13 13:04:09;;;;;;;4.90;1.13;;;9.00;85.00;;;;;;5045724;28;20582;-60
2023/01/13 13:06:38;;;;;;;6.05;1.30;;;9.10;85.00;;;;;;5049685;28;20523;-61
2023/01/13 13:09:14;;;;;;;5.18;1.27;;;9.10;85.00;;;;;;5051886;28;20116;-60
2023/01/13 13:15:01;;;;;;;3.88;0.88;;;9.10;84.80;;;;;;4999306;28;20049;-60
2023/01/13 13:17:43;;;;;;;3.05;0.85;;;9.10;84.70;;;;;;5048812;28;20052;-61
2023/01/13 13:20:43;;;;;;;2.83;0.90;;;9.10;84.50;;;;;;5041777;28;20115;-62
2023/01/13 13:23:47;;;;;;;5.75;0.98;;;9.10;84.10;;;;;;5053855;28;20070;-60
2023/01/13 13:26:23;;;;;;;6.75;1.75;;;9.10;84.30;;;;;;5047642;28;20041;-62
2023/01/13 13:29:07;;;;;;;6.40;1.20;;;9.10;83.70;;;;;;5040588;28;20079;-61
2023/01/13 13:31:50;;;;;;;4.30;1.00;;;9.10;83.50;;;;;;5043789;28;20057;-59
2023/01/13 13:34:28;;;;;;;5.03;1.05;;;9.20;82.80;;;;;;5052018;28;20052;-58
2023/01/13 13:37:13;;;;;;;2.95;0.90;;;9.20;82.40;;;;;;5048618;28;20064;-61
2023/01/13 13:48:14;;;;;;;6.22;1.50;;;9.10;82.10;;;;;;5047283;28;20045;-70
2023/01/13 13:50:49;;;;;;;5.53;1.00;;;9.10;81.80;;;;;;5041444;28;20055;-69
2023/01/13 13:53:19;;;;;;;4.35;1.27;;;9.10;81.60;;;;;;5048533;28;20048;-70
2023/01/13 13:55:54;;;;;;;4.15;0.80;;;9.10;82.50;;;;;;5063661;28;20052;-60
2023/01/13 13:58:22;;;;;;;6.07;0.98;;;9.10;82.20;;;;;;5045780;28;20056;-62
2023/01/13 14:00:49;;;;;;;4.20;0.90;;;9.10;81.90;;;;;;5046646;28;20551;-63
2023/01/13 14:03:25;;;;;;;4.93;1.20;;;9.10;82.10;;;;;;5045349;28;20061;-63
2023/01/13 14:05:58;;;;;;;6.32;1.52;;;9.00;82.20;;;;;;5049083;28;20088;-62
2023/01/13 14:08:26;;;;;;;5.65;1.48;;;9.00;82.10;;;;;;5046375;28;20052;-60
2023/01/13 14:10:53;;;;;;;6.18;1.63;;;9.00;81.90;;;;;;5046559;28;20045;-60